Main page
METAR-TAF:

METAR-TAF

Airports :

Harlan Municipal Airport

Harlan, Iowa, United States

latitude: 41-35-04N, longitude: 095-20-23W, elevation: 1230 ft

Current weather observation

The report was made 26 minutes ago, at 21:15 UTC
Wind 22 mph from the South with gusts up to 28 mph
Temperature 72°F
Humidity 25%
Pressure 29.78 in. Hg
Visibility: 10 miles
Clear sky

METAR: KHNR 012115Z AUTO 19019G24KT 10SM CLR 22/01 A2978 RMK AO2

Time: 16:41 (21:41 UTC)


TAF: missing

Weather observations and forecasts of more than 4000 airports (METAR and TAF reports).

The available stations are represented by yellow and red dots on the map.

Hover mouse over dot to see the name of the station.

Then click to see weather observations and forecasts.

To change the map : click on the green buttons with a black cross to zoom in, on the green button with a dash to zoom out, or on the green arrows for adjacent maps.


METAR-TAF: